Morocco Star — CNA5167 — position and weather

sailwx.info

Track history (hours):
 
Tides and Currents Weather Stations Pressure Air Temp Water Temp Dewpoint Dewpoint Depression Visibility Wind Speed Wind Dir Waves Ship Positions

Morocco Star

Last reported at 2017-Dec-04 08:17 UTC. Time now 2017-Dec-11 19:06 UTC.
Position N 35°59' W 005°24'.

Length 152 m; draft 5 m.

Type: Ship. MMSI: 242579300.

Date/timePositionNaut miles runAvg speedWind from/ knotsBaromVisibWave heightAir tempDewpointWater temp
2017-Dec-04 08:17N 35°59' W 005°24'518.0
2017-Dec-04 08:00N 35°57' W 005°29'1 0.1
2017-Dec-04 00:26N 35°56' W 005°30'716.4
2017-Dec-04 00:00N 36°02' W 005°25'6 3.3
2017-Dec-03 22:05N 36°08' W 005°26'4 8.2
2017-Dec-03 21:33N 36°05' W 005°22'116.4
2017-Dec-03 21:30N 36°04' W 005°22'714.6
2017-Dec-03 21:00N 35°58' W 005°27'3 1.6
2017-Dec-03 19:00N 35°56' W 005°30'713.9
2017-Dec-03 18:30N 36°01' W 005°24'7 2.7
2017-Dec-03 15:59N 36°08' W 005°24'814.3
2017-Dec-03 15:26N 36°00' W 005°24'6 1.9
2017-Dec-03 12:26N 35°56' W 005°30'9 2.7
2017-Dec-03 09:15N 36°03' W 005°23'516.2
2017-Dec-03 08:57N 35°59' W 005°26'4 1.4
2017-Dec-03 06:02N 35°56' W 005°30'014.0
2017-Dec-03 06:00N 35°56' W 005°29'612.9
2017-Dec-03 05:31N 36°02' W 005°25'6 3.1
2017-Dec-03 03:26N 36°08' W 005°26'3 6.4
2017-Dec-03 02:58N 36°06' W 005°24'816.4
2017-Dec-03 02:30N 35°59' W 005°26'5 2.3
2017-Dec-03 00:19N 35°57' W 005°32'515.2
2017-Dec-03 00:00N 35°60' W 005°27'8 3.8
2017-Dec-02 21:48N 36°08' W 005°26'4 8.4
2017-Dec-02 21:18N 36°05' W 005°23'515.5
2017-Dec-02 21:00N 36°00' W 005°24'6 1.7
2017-Dec-02 17:44N 35°57' W 005°29'612.6
2017-Dec-02 17:14N 36°01' W 005°24'7 3.5
2017-Dec-02 15:11N 36°08' W 005°26'1 6.5
2017-Dec-02 14:59N 36°09' W 005°25'715.2
2017-Dec-02 14:30N 36°01' W 005°24'7 3.0
2017-Dec-02 12:13N 35°56' W 005°30'8 2.6
2017-Dec-02 09:15N 36°02' W 005°24'417.7
2017-Dec-02 09:00N 35°58' W 005°26'4 1.3
2017-Dec-02 06:13N 35°56' W 005°30'313.6
2017-Dec-02 06:00N 35°59' W 005°29'713.8
2017-Dec-02 05:30N 36°05' W 005°24'4 2.1
2017-Dec-02 03:39N 36°08' W 005°26'1 5.7
2017-Dec-02 03:27N 36°09' W 005°25'611.9
2017-Dec-02 02:58N 36°04' W 005°23'716.0
2017-Dec-02 02:30N 35°58' W 005°28'2 1.1
2017-Dec-02 00:18N 35°56' W 005°30'415.0
2017-Dec-02 00:00N 35°60' W 005°27'1 0.5
2017-Dec-01 20:57N 35°59' W 005°25'4 1.4
2017-Dec-01 17:56N 35°56' W 005°30'4 1.4
2017-Dec-01 14:43N 35°59' W 005°26'417.7
2017-Dec-01 14:30N 35°57' W 005°29'1 0.4
2017-Dec-01 12:15N 35°56' W 005°30'413.4
2017-Dec-01 11:55N 35°59' W 005°26'1 0.3
2017-Dec-01 08:44N 35°59' W 005°25'417.8
2017-Dec-01 08:31N 35°57' W 005°29'1 0.2
2017-Dec-01 01:37N 35°56' W 005°30'215.1
2017-Dec-01 01:30N 35°58' W 005°29'714.8
2017-Dec-01 01:00N 36°04' W 005°24'4 6.5
2017-Dec-01 00:19N 36°08' W 005°26'1 1.0
2017-Nov-30 23:07N 36°09' W 005°25'111.1
2017-Nov-30 22:59N 36°08' W 005°24'814.0
2017-Nov-30 22:25N 36°00' W 005°25'6 2.2
2017-Nov-30 19:43N 35°56' W 005°30'314.5
2017-Nov-30 19:30N 35°59' W 005°28'714.0
2017-Nov-30 19:00N 36°05' W 005°23'6 2.7
2017-Nov-30 16:37N 35°59' W 005°25'218.8
2017-Nov-30 16:30N 35°57' W 005°27'2 0.9
2017-Nov-30 14:22N 35°56' W 005°29'5 1.3
2017-Nov-30 10:57N 35°59' W 005°25'5 2.0
2017-Nov-30 08:33N 35°56' W 005°30'115.0
2017-Nov-30 08:30N 35°57' W 005°30'11 6.9
2017-Nov-30 06:51N 36°08' W 005°26'0 0.0
2017-Nov-30 06:26N 36°08' W 005°26'3 4.8
2017-Nov-30 05:46N 36°06' W 005°24'416.4
2017-Nov-30 05:30N 36°01' W 005°24'9 3.3
2017-Nov-30 02:42N 35°54' W 005°31'313.0
2017-Nov-30 02:30N 35°56' W 005°30'611.6
2017-Nov-30 02:00N 36°00' W 005°25'815.1
2017-Nov-30 01:30N 36°08' W 005°24'2 1.0
2017-Nov-29 23:57N 36°08' W 005°26'1 2.8
2017-Nov-29 23:30N 36°09' W 005°25'713.4
2017-Nov-29 23:00N 36°02' W 005°24'815.6
2017-Nov-29 22:31N 35°57' W 005°30'1 0.2
2017-Nov-29 19:12N 35°56' W 005°30'313.8
2017-Nov-29 19:01N 35°59' W 005°28'  
2017-Nov-27 05:48N 35°56' W 005°30'415.0
2017-Nov-27 05:30N 35°60' W 005°27'713.3
2017-Nov-27 05:00N 36°06' W 005°24'3 1.9
2017-Nov-27 03:15N 36°08' W 005°26'3 9.0
2017-Nov-27 02:57N 36°07' W 005°23'715.6
2017-Nov-27 02:30N 35°60' W 005°24'6 2.8
2017-Nov-27 00:25N 35°56' W 005°30'614.9
2017-Nov-27 00:00N 36°01' W 005°25'5 1.4
2017-Nov-26 20:37N 36°06' W 005°23'215.5
2017-Nov-26 20:30N 36°04' W 005°23'815.5
2017-Nov-26 20:01N 35°57' W 005°28'2 0.8
2017-Nov-26 17:54N 35°56' W 005°30'615.3
2017-Nov-26 17:30N 36°01' W 005°26'7 3.1
2017-Nov-26 15:09N 36°08' W 005°26'2 8.9
2017-Nov-26 14:58N 36°09' W 005°24'714.6
2017-Nov-26 14:30N 36°02' W 005°23'8 3.2
2017-Nov-26 11:55N 35°56' W 005°30'613.6
2017-Nov-26 11:30N 36°00' W 005°26'815.3
2017-Nov-26 11:00N 36°08' W 005°24'2 1.7
2017-Nov-26 09:52N 36°08' W 005°26'2 4.1
2017-Nov-26 09:30N 36°09' W 005°25'914.5
2017-Nov-26 08:53N 35°60' W 005°24'6 2.2
2017-Nov-26 06:13N 35°56' W 005°30'315.2
2017-Nov-26 06:00N 35°59' W 005°29'714.0
2017-Nov-26 05:30N 36°05' W 005°24'3 2.4
2017-Nov-26 04:05N 36°08' W 005°26'0 1.6
2017-Nov-26 04:00N 36°08' W 005°26'3 6.9
2017-Nov-26 03:30N 36°05' W 005°23'816.4
2017-Nov-26 03:01N 35°58' W 005°27'3 1.1
2017-Nov-26 00:26N 35°56' W 005°30'614.0
2017-Nov-26 00:01N 36°01' W 005°25'814.5
2017-Nov-25 23:27N 36°09' W 005°25'1 0.4
2017-Nov-25 21:35N 36°08' W 005°26'1 9.4
2017-Nov-25 21:30N 36°09' W 005°26'914.6
2017-Nov-25 20:52N 35°60' W 005°25'6 2.0
2017-Nov-25 18:03N 35°56' W 005°30'116.0
2017-Nov-25 18:00N 35°57' W 005°30'714.5
2017-Nov-25 17:30N 36°02' W 005°23'714.2
2017-Nov-25 17:00N 36°09' W 005°25'1 0.9
2017-Nov-25 15:40N 36°08' W 005°26'0 0.0
2017-Nov-25 15:29N 36°08' W 005°26'0 0.9
2017-Nov-25 15:01N 36°08' W 005°26'511.0
2017-Nov-25 14:31N 36°03' W 005°23'917.1
2017-Nov-25 14:00N 35°56' W 005°29'1 0.4
2017-Nov-25 11:52N 35°56' W 005°30'10 3.3
2017-Nov-25 08:48N 36°04' W 005°23'517.0
2017-Nov-25 08:30N 35°59' W 005°24'6 2.0
2017-Nov-25 05:46N 35°56' W 005°30'415.0
2017-Nov-25 05:30N 35°59' W 005°27'814.4
2017-Nov-25 04:57N 36°07' W 005°24'2 1.3
2017-Nov-25 03:20N 36°08' W 005°26'0 0.8
2017-Nov-25 03:01N 36°08' W 005°26'510.5
2017-Nov-25 02:30N 36°03' W 005°23'816.8
2017-Nov-25 02:00N 35°56' W 005°29'2 0.7
2017-Nov-24 23:42N 35°56' W 005°30'315.0
2017-Nov-24 23:30N 35°59' W 005°28'10 4.2
2017-Nov-24 21:14N 36°08' W 005°26'711.4
2017-Nov-24 20:35N 36°01' W 005°24'116.2
2017-Nov-24 20:30N 35°60' W 005°24'6 2.1
2017-Nov-24 17:48N 35°57' W 005°30'12 6.4
2017-Nov-24 15:58N 36°08' W 005°26'0 0.0
2017-Nov-24 15:30N 36°08' W 005°26'1 2.4
2017-Nov-24 15:00N 36°09' W 005°26'1014.1
2017-Nov-24 14:17N 35°59' W 005°26'4 1.5
2017-Nov-24 11:53N 35°57' W 005°29'4 1.1
2017-Nov-24 08:34N 35°59' W 005°26'119.1
2017-Nov-24 08:30N 35°58' W 005°27'  
Track history (hours):
 
Tides and Currents Weather Stations Pressure Air Temp Water Temp Dewpoint Dewpoint Depression Visibility Wind Speed Wind Dir Waves Ship Positions

Morocco Star

Last reported at 2017-Dec-04 08:17 UTC. Time now 2017-Dec-11 19:06 UTC.
Position N 35°59' W 005°24'.

Length 152 m; draft 5 m.

Type: Ship. MMSI: 242579300.

Date/timePositionNaut miles runAvg speedWind from/ knotsBaromVisibWave heightAir tempDewpointWater temp
2017-Dec-04 08:17N 35°59' W 005°24'518.0
2017-Dec-04 08:00N 35°57' W 005°29'1 0.1
2017-Dec-04 00:26N 35°56' W 005°30'716.4
2017-Dec-04 00:00N 36°02' W 005°25'6 3.3
2017-Dec-03 22:05N 36°08' W 005°26'4 8.2
2017-Dec-03 21:33N 36°05' W 005°22'116.4
2017-Dec-03 21:30N 36°04' W 005°22'714.6
2017-Dec-03 21:00N 35°58' W 005°27'3 1.6
2017-Dec-03 19:00N 35°56' W 005°30'713.9
2017-Dec-03 18:30N 36°01' W 005°24'7 2.7
2017-Dec-03 15:59N 36°08' W 005°24'814.3
2017-Dec-03 15:26N 36°00' W 005°24'6 1.9
2017-Dec-03 12:26N 35°56' W 005°30'9 2.7
2017-Dec-03 09:15N 36°03' W 005°23'516.2
2017-Dec-03 08:57N 35°59' W 005°26'4 1.4
2017-Dec-03 06:02N 35°56' W 005°30'014.0
2017-Dec-03 06:00N 35°56' W 005°29'612.9
2017-Dec-03 05:31N 36°02' W 005°25'6 3.1
2017-Dec-03 03:26N 36°08' W 005°26'3 6.4
2017-Dec-03 02:58N 36°06' W 005°24'816.4
2017-Dec-03 02:30N 35°59' W 005°26'5 2.3
2017-Dec-03 00:19N 35°57' W 005°32'515.2
2017-Dec-03 00:00N 35°60' W 005°27'8 3.8
2017-Dec-02 21:48N 36°08' W 005°26'4 8.4
2017-Dec-02 21:18N 36°05' W 005°23'515.5
2017-Dec-02 21:00N 36°00' W 005°24'6 1.7
2017-Dec-02 17:44N 35°57' W 005°29'612.6
2017-Dec-02 17:14N 36°01' W 005°24'7 3.5
2017-Dec-02 15:11N 36°08' W 005°26'1 6.5
2017-Dec-02 14:59N 36°09' W 005°25'715.2
2017-Dec-02 14:30N 36°01' W 005°24'7 3.0
2017-Dec-02 12:13N 35°56' W 005°30'8 2.6
2017-Dec-02 09:15N 36°02' W 005°24'417.7
2017-Dec-02 09:00N 35°58' W 005°26'4 1.3
2017-Dec-02 06:13N 35°56' W 005°30'313.6
2017-Dec-02 06:00N 35°59' W 005°29'713.8
2017-Dec-02 05:30N 36°05' W 005°24'4 2.1
2017-Dec-02 03:39N 36°08' W 005°26'1 5.7
2017-Dec-02 03:27N 36°09' W 005°25'611.9
2017-Dec-02 02:58N 36°04' W 005°23'716.0
2017-Dec-02 02:30N 35°58' W 005°28'2 1.1
2017-Dec-02 00:18N 35°56' W 005°30'415.0
2017-Dec-02 00:00N 35°60' W 005°27'1 0.5
2017-Dec-01 20:57N 35°59' W 005°25'4 1.4
2017-Dec-01 17:56N 35°56' W 005°30'4 1.4
2017-Dec-01 14:43N 35°59' W 005°26'417.7
2017-Dec-01 14:30N 35°57' W 005°29'1 0.4
2017-Dec-01 12:15N 35°56' W 005°30'413.4
2017-Dec-01 11:55N 35°59' W 005°26'1 0.3
2017-Dec-01 08:44N 35°59' W 005°25'417.8
2017-Dec-01 08:31N 35°57' W 005°29'1 0.2
2017-Dec-01 01:37N 35°56' W 005°30'215.1
2017-Dec-01 01:30N 35°58' W 005°29'714.8
2017-Dec-01 01:00N 36°04' W 005°24'4 6.5
2017-Dec-01 00:19N 36°08' W 005°26'1 1.0
2017-Nov-30 23:07N 36°09' W 005°25'111.1
2017-Nov-30 22:59N 36°08' W 005°24'814.0
2017-Nov-30 22:25N 36°00' W 005°25'6 2.2
2017-Nov-30 19:43N 35°56' W 005°30'314.5
2017-Nov-30 19:30N 35°59' W 005°28'714.0
2017-Nov-30 19:00N 36°05' W 005°23'6 2.7
2017-Nov-30 16:37N 35°59' W 005°25'218.8
2017-Nov-30 16:30N 35°57' W 005°27'2 0.9
2017-Nov-30 14:22N 35°56' W 005°29'5 1.3
2017-Nov-30 10:57N 35°59' W 005°25'5 2.0
2017-Nov-30 08:33N 35°56' W 005°30'115.0
2017-Nov-30 08:30N 35°57' W 005°30'11 6.9
2017-Nov-30 06:51N 36°08' W 005°26'0 0.0
2017-Nov-30 06:26N 36°08' W 005°26'3 4.8
2017-Nov-30 05:46N 36°06' W 005°24'416.4
2017-Nov-30 05:30N 36°01' W 005°24'9 3.3
2017-Nov-30 02:42N 35°54' W 005°31'313.0
2017-Nov-30 02:30N 35°56' W 005°30'611.6
2017-Nov-30 02:00N 36°00' W 005°25'815.1
2017-Nov-30 01:30N 36°08' W 005°24'2 1.0
2017-Nov-29 23:57N 36°08' W 005°26'1 2.8
2017-Nov-29 23:30N 36°09' W 005°25'713.4
2017-Nov-29 23:00N 36°02' W 005°24'815.6
2017-Nov-29 22:31N 35°57' W 005°30'1 0.2
2017-Nov-29 19:12N 35°56' W 005°30'313.8
2017-Nov-29 19:01N 35°59' W 005°28'  
2017-Nov-27 05:48N 35°56' W 005°30'415.0
2017-Nov-27 05:30N 35°60' W 005°27'713.3
2017-Nov-27 05:00N 36°06' W 005°24'3 1.9
2017-Nov-27 03:15N 36°08' W 005°26'3 9.0
2017-Nov-27 02:57N 36°07' W 005°23'715.6
2017-Nov-27 02:30N 35°60' W 005°24'6 2.8
2017-Nov-27 00:25N 35°56' W 005°30'614.9
2017-Nov-27 00:00N 36°01' W 005°25'5 1.4
2017-Nov-26 20:37N 36°06' W 005°23'215.5
2017-Nov-26 20:30N 36°04' W 005°23'815.5
2017-Nov-26 20:01N 35°57' W 005°28'2 0.8
2017-Nov-26 17:54N 35°56' W 005°30'615.3
2017-Nov-26 17:30N 36°01' W 005°26'7 3.1
2017-Nov-26 15:09N 36°08' W 005°26'2 8.9
2017-Nov-26 14:58N 36°09' W 005°24'714.6
2017-Nov-26 14:30N 36°02' W 005°23'8 3.2
2017-Nov-26 11:55N 35°56' W 005°30'613.6
2017-Nov-26 11:30N 36°00' W 005°26'815.3
2017-Nov-26 11:00N 36°08' W 005°24'2 1.7
2017-Nov-26 09:52N 36°08' W 005°26'2 4.1
2017-Nov-26 09:30N 36°09' W 005°25'914.5
2017-Nov-26 08:53N 35°60' W 005°24'6 2.2
2017-Nov-26 06:13N 35°56' W 005°30'315.2
2017-Nov-26 06:00N 35°59' W 005°29'714.0
2017-Nov-26 05:30N 36°05' W 005°24'3 2.4
2017-Nov-26 04:05N 36°08' W 005°26'0 1.6
2017-Nov-26 04:00N 36°08' W 005°26'3 6.9
2017-Nov-26 03:30N 36°05' W 005°23'816.4
2017-Nov-26 03:01N 35°58' W 005°27'3 1.1
2017-Nov-26 00:26N 35°56' W 005°30'614.0
2017-Nov-26 00:01N 36°01' W 005°25'814.5
2017-Nov-25 23:27N 36°09' W 005°25'1 0.4
2017-Nov-25 21:35N 36°08' W 005°26'1 9.4
2017-Nov-25 21:30N 36°09' W 005°26'914.6
2017-Nov-25 20:52N 35°60' W 005°25'6 2.0
2017-Nov-25 18:03N 35°56' W 005°30'116.0
2017-Nov-25 18:00N 35°57' W 005°30'714.5
2017-Nov-25 17:30N 36°02' W 005°23'714.2
2017-Nov-25 17:00N 36°09' W 005°25'1 0.9
2017-Nov-25 15:40N 36°08' W 005°26'0 0.0
2017-Nov-25 15:29N 36°08' W 005°26'0 0.9
2017-Nov-25 15:01N 36°08' W 005°26'511.0
2017-Nov-25 14:31N 36°03' W 005°23'917.1
2017-Nov-25 14:00N 35°56' W 005°29'1 0.4
2017-Nov-25 11:52N 35°56' W 005°30'10 3.3
2017-Nov-25 08:48N 36°04' W 005°23'517.0
2017-Nov-25 08:30N 35°59' W 005°24'6 2.0
2017-Nov-25 05:46N 35°56' W 005°30'415.0
2017-Nov-25 05:30N 35°59' W 005°27'814.4
2017-Nov-25 04:57N 36°07' W 005°24'2 1.3
2017-Nov-25 03:20N 36°08' W 005°26'0 0.8
2017-Nov-25 03:01N 36°08' W 005°26'510.5
2017-Nov-25 02:30N 36°03' W 005°23'816.8
2017-Nov-25 02:00N 35°56' W 005°29'2 0.7
2017-Nov-24 23:42N 35°56' W 005°30'315.0
2017-Nov-24 23:30N 35°59' W 005°28'10 4.2
2017-Nov-24 21:14N 36°08' W 005°26'711.4
2017-Nov-24 20:35N 36°01' W 005°24'116.2
2017-Nov-24 20:30N 35°60' W 005°24'6 2.1
2017-Nov-24 17:48N 35°57' W 005°30'12 6.4
2017-Nov-24 15:58N 36°08' W 005°26'0 0.0
2017-Nov-24 15:30N 36°08' W 005°26'1 2.4
2017-Nov-24 15:00N 36°09' W 005°26'1014.1
2017-Nov-24 14:17N 35°59' W 005°26'4 1.5
2017-Nov-24 11:53N 35°57' W 005°29'4 1.1
2017-Nov-24 08:34N 35°59' W 005°26'119.1
2017-Nov-24 08:30N 35°58' W 005°27'  

Dump ship's entire track history